Latest Weather Observations for ACT PCS2

IDN60801

Issued at 8:23 pm EST Thursday 13 June 2024 (issued every 10 minutes, with the page automatically refreshed every 10 minutes)

About weather observations | Map of weather stations | Latest weather observations for NSW | Other Formats
Station Details ID: 250105 Name: ACT PCS2 Lat: -35.41 Lon: 149.01 Height: 820.0 m

Portable automatic weather stations (PAWS) are operated by other organisations, such as Fire and Emergency Services, and are included here by agreement. Portable stations may be deployed to a location for a short period and their location may be subject to change without notice. Wind observations from these stations are provided from heights of either three (3) or ten (10) metres above ground level (AGL).

Data from the previous 72 hours. | See also: Recent months for locations in New South Wales
Date/Time
EST
Temp
°C
App
Temp
°C
Dew
Point
°C
Rel
Hum
%
Delta-T
°C
Wind Press
QNH
hPa
Press
MSL
hPa
Rain since
9am
mm
Dir  Spd
km/h
Gust
km/h
Spd
kts
Gust
kts
13/08:10pm 5.1 2.9 1.3 76 1.6 S 2 2 1 1 - - 0.0
13/08:00pm 5.3 2.8 1.5 76 1.6 S 4 4 2 2 - - 0.0
13/07:50pm 5.4 2.9 1.3 75 1.7 SSE 4 6 2 3 - - 0.0
13/07:40pm 5.2 2.6 1.2 75 1.7 SSE 4 6 2 3 - - 0.0
13/07:30pm 5.3 3.2 1.6 77 1.6 SE 2 4 1 2 - - 0.0
13/07:20pm 5.7 3.5 1.1 72 1.9 ESE 2 4 1 2 - - 0.0
13/07:00pm 5.7 3.5 1.1 72 1.9 S 2 4 1 2 - - 0.0
13/06:50pm 5.6 3.1 1.3 74 1.8 S 4 4 2 2 - - 0.0
13/06:40pm 5.5 3.0 1.3 74 1.8 S 4 4 2 2 - - 0.0
13/06:30pm 5.4 2.9 1.5 76 1.6 SSW 4 4 2 2 - - 0.0
13/06:20pm 5.5 2.6 1.7 76 1.6 SW 6 7 3 4 - - 0.0
13/06:10pm 5.6 2.5 1.5 75 1.7 WSW 7 9 4 5 - - 0.0
13/06:00pm 5.5 2.4 1.6 76 1.6 SW 7 7 4 4 - - 0.0
13/05:50pm 5.6 2.7 1.5 75 1.7 SW 6 7 3 4 - - 0.0
13/05:40pm 5.5 2.6 1.6 76 1.6 SW 6 6 3 3 - - 0.0
13/05:30pm 5.5 2.6 1.7 76 1.6 SSW 6 6 3 3 - - 0.0
13/05:10pm 5.7 2.9 1.8 76 1.7 SSW 6 6 3 3 - - 0.0
13/05:00pm 5.8 3.0 1.9 76 1.7 SW 6 7 3 4 - - 0.0
13/04:50pm 5.8 3.7 1.5 74 1.8 SW 2 6 1 3 - - 0.0
13/04:40pm 6.0 4.3 1.9 75 1.7 CALM 0 0 0 0 - - 0.0
13/04:30pm 6.2 4.5 1.8 73 1.9 CALM 0 0 0 0 - - 0.0
13/04:20pm 6.3 4.5 1.3 70 2.1 CALM 0 0 0 0 - - 0.0
13/04:10pm 6.5 4.8 1.6 71 2.1 CALM 0 0 0 0 - - 0.0
13/04:00pm 6.7 5.0 1.6 70 2.2 CALM 0 0 0 0 - - 0.0
13/03:50pm 6.9 5.2 1.9 70 2.1 CALM 0 0 0 0 - - 0.0
13/03:40pm 7.1 5.3 1.5 67 2.4 CALM 0 0 0 0 - - 0.0
13/03:30pm 7.3 5.7 2.2 70 2.2 CALM 0 2 0 1 - - 0.0
13/03:20pm 7.4 5.3 1.7 67 2.4 SW 2 4 1 2 - - 0.0
13/03:10pm 7.4 5.3 1.7 67 2.4 SE 2 4 1 2 - - 0.0
13/03:00pm 7.3 4.8 1.3 65 2.5 SE 4 4 2 2 - - 0.0
13/02:50pm 7.3 5.3 2.1 69 2.3 SSE 2 4 1 2 - - 0.0
13/02:40pm 7.1 5.0 1.4 67 2.4 SE 2 4 1 2 - - 0.0
13/02:30pm 6.8 4.4 2.0 71 2.1 ESE 4 6 2 3 - - 0.0
13/02:20pm 6.7 4.2 1.4 69 2.2 SSE 4 6 2 3 - - 0.0
13/02:10pm 6.6 4.0 1.2 68 2.3 SE 4 6 2 3 - - 0.0
13/02:00pm 6.4 3.8 1.1 69 2.2 SE 4 6 2 3 - - 0.0
13/01:50pm 6.4 3.5 1.5 71 2.1 SE 6 6 3 3 - - 0.0
13/01:40pm 6.6 4.1 1.4 69 2.2 SE 4 6 2 3 - - 0.0
13/01:30pm 6.7 4.2 1.6 70 2.2 SE 4 6 2 3 - - 0.0
13/01:20pm 6.9 4.3 1.1 66 2.4 SE 4 4 2 2 - - 0.0
13/01:10pm 6.9 4.4 1.7 69 2.2 SE 4 4 2 2 - - 0.0
13/01:00pm 6.7 4.2 1.6 70 2.2 ESE 4 6 2 3 - - 0.0
13/12:50pm 6.4 3.5 1.3 70 2.1 SE 6 7 3 4 - - 0.0
13/12:40pm 6.5 3.5 1.0 68 2.3 SE 6 7 3 4 - - 0.0
13/12:30pm 6.7 4.1 1.0 67 2.4 SE 4 6 2 3 - - 0.0
13/12:20pm 6.1 3.5 0.8 69 2.2 S 4 6 2 3 - - 0.0
13/12:10pm 5.7 3.1 0.9 71 2.0 SE 4 6 2 3 - - 0.0
13/12:00pm 5.7 2.7 0.9 71 2.0 SE 6 7 3 4 - - 0.0
13/11:50am 6.0 3.4 0.7 69 2.2 SSE 4 7 2 4 - - 0.0
13/11:40am 6.0 3.0 0.9 70 2.1 SE 6 7 3 4 - - 0.0
13/11:30am 5.9 2.7 0.8 70 2.1 SSE 7 7 4 4 - - 0.0
13/11:20am 5.9 2.7 0.7 69 2.1 SE 7 9 4 5 - - 0.0
13/11:10am 6.1 2.9 0.7 68 2.2 SE 7 9 4 5 - - 0.0
13/11:00am 5.7 2.7 1.0 72 2.0 SE 6 9 3 5 - - 0.0
13/10:50am 5.4 2.4 0.8 72 1.9 SE 6 7 3 4 - - 0.0
13/10:40am 5.2 1.9 0.2 70 2.0 SE 7 9 4 5 - - 0.0
13/10:30am 5.2 1.9 0.4 71 2.0 SE 7 9 4 5 - - 0.0
13/10:20am 5.2 2.1 0.4 71 2.0 SE 6 9 3 5 - - 0.0
13/10:10am 4.9 1.6 0.2 71 1.9 SE 7 9 4 5 - - 0.0
13/10:00am 4.9 1.8 0.4 72 1.8 SE 6 7 3 4 - - 0.0
13/09:50am 4.7 2.0 0.6 75 1.7 SSE 4 6 2 3 - - 0.0
13/09:40am 4.8 1.7 0.1 71 1.9 SE 6 6 3 3 - - 0.0
13/09:30am 4.9 2.2 0.1 71 1.9 ESE 4 6 2 3 - - 0.0
13/09:20am 4.6 1.4 -0.3 70 1.9 SE 6 7 3 4 - - 0.0
13/09:10am 4.3 1.1 -0.5 71 1.9 SE 6 9 3 5 - - 0.0
13/09:00am 4.1 0.7 -0.6 71 1.8 SSE 7 11 4 6 - - 0.0
13/08:50am 3.9 0.7 -0.8 71 1.8 SE 6 9 3 5 - - 0.0
13/08:40am 3.7 0.4 -1.1 71 1.9 SE 6 7 3 4 - - 0.0
13/08:30am 3.4 0.1 -1.2 72 1.8 SSE 6 7 3 4 - - 0.0
13/08:20am 3.1 0.2 -1.4 72 1.7 S 4 7 2 4 - - 0.0
13/08:10am 3.1 -0.4 -1.3 73 1.7 SSE 7 7 4 4 - - 0.0
13/07:50am 2.6 -0.7 -1.6 74 1.6 SSE 6 9 3 5 - - 0.0
13/07:40am 2.4 -0.6 -1.5 75 1.5 ESE 4 6 2 3 - - 0.0
13/07:30am 2.9 -1.0 -1.6 72 1.7 SSE 9 11 5 6 - - 0.0
13/07:20am 2.8 -0.7 -1.6 73 1.7 SSE 7 9 4 5 - - 0.0
13/07:10am 2.3 -1.1 -1.9 74 1.6 S 6 9 3 5 - - 0.0
13/07:00am 2.7 -0.7 -1.8 72 1.7 SSE 6 9 3 5 - - 0.0
13/06:40am 2.5 -1.5 -2.3 70 1.8 SSE 9 11 5 6 - - 0.0
13/06:30am 2.5 -1.1 -2.2 71 1.7 SSE 7 9 4 5 - - 0.0
13/06:20am 2.3 -1.1 -2.2 72 1.7 SSE 6 7 3 4 - - 0.0
13/06:10am 2.4 -1.0 -2.1 72 1.7 SSE 6 6 3 3 - - 0.0
13/06:00am 2.6 -1.0 -2.0 72 1.7 SSE 7 9 4 5 - - 0.0
13/05:50am 2.5 -0.9 -2.1 72 1.7 SSE 6 7 3 4 - - 0.0
13/05:30am 2.7 -0.9 -2.2 70 1.8 SSE 7 7 4 4 - - 0.0
13/05:20am 2.6 -1.0 -2.2 70 1.8 SSE 7 9 4 5 - - 0.0
13/05:10am 2.6 -1.4 -2.2 70 1.8 SSE 9 9 5 5 - - 0.0
13/05:00am 2.6 -1.4 -2.2 70 1.8 S 9 9 5 5 - - 0.0
13/04:50am 2.6 -1.4 -2.2 70 1.8 S 9 11 5 6 - - 0.0
13/04:40am 2.4 -1.6 -2.2 71 1.7 SSE 9 11 5 6 - - 0.0
13/04:30am 2.2 -1.4 -2.1 73 1.6 SSE 7 7 4 4 - - 0.0
13/04:20am 2.2 -1.2 -2.0 74 1.6 SSE 6 6 3 3 - - 0.0
13/04:10am 2.4 -0.6 -1.7 74 1.5 SSE 4 7 2 4 - - 0.0
13/04:00am 2.7 -0.9 -1.8 72 1.7 SSE 7 9 4 5 - - 0.0
13/03:50am 2.7 -1.3 -1.9 72 1.7 SSE 9 11 5 6 - - 0.0
13/03:40am 2.8 -1.2 -1.9 71 1.8 SSE 9 11 5 6 - - 0.0
13/03:30am 2.8 -0.8 -2.0 71 1.8 SSE 7 11 4 6 - - 0.0
13/03:20am 2.9 -0.7 -2.0 70 1.8 SSE 7 9 4 5 - - 0.0
13/03:10am 3.0 -0.4 -1.9 70 1.8 SSE 6 7 3 4 - - 0.0
13/03:00am 3.3 -0.3 -2.0 68 2.0 SSE 7 11 4 6 - - 0.0
13/02:50am 3.3 -0.3 -2.2 67 2.1 SSE 7 9 4 5 - - 0.0
13/02:40am 3.3 -0.3 -2.1 68 2.0 SSE 7 9 4 5 - - 0.0
13/02:30am 3.4 -0.2 -2.3 66 2.1 SSE 7 11 4 6 - - 0.0
13/02:20am 3.2 -0.2 -2.3 67 2.0 SSE 6 7 3 4 - - 0.0
13/02:10am 3.2 -0.4 -2.2 68 2.0 S 7 7 4 4 - - 0.0
13/02:00am 3.3 -0.3 -1.9 69 2.0 SSE 7 7 4 4 - - 0.0
13/01:50am 3.4 -0.1 -1.7 69 1.9 SSE 7 9 4 5 - - 0.0
13/01:40am 3.6 -0.7 -1.9 67 2.1 SSE 11 11 6 6 - - 0.0
13/01:30am 3.3 -0.3 -2.1 68 2.0 SSE 7 11 4 6 - - 0.0
13/01:20am 3.3 -0.3 -2.2 67 2.1 SSE 7 7 4 4 - - 0.0
13/01:10am 3.4 -0.2 -2.4 66 2.2 SSE 7 7 4 4 - - 0.0
13/01:00am 3.5 -0.2 -2.6 64 2.3 SSE 7 9 4 5 - - 0.0
13/12:40am 3.4 0.4 -2.2 67 2.1 SSE 4 6 2 3 - - 0.0
13/12:30am 3.6 0.1 -2.5 64 2.3 SSE 6 7 3 4 - - 0.0
13/12:10am 3.7 0.1 -2.4 64 2.3 SSE 7 9 4 5 - - 0.0
13/12:00am 3.7 0.2 -2.6 63 2.3 SSE 6 7 3 4 - - 0.0
 
Date/Time
EST
Temp
°C
App
Temp
°C
Dew
Point
°C
Rel
Hum
%
Delta-T
°C
Wind Press
QNH
hPa
Press
MSL
hPa
Rain since
9am
mm
Dir  Spd
km/h
Gust
km/h
Spd
kts
Gust
kts
12/11:50pm 3.6 0.5 -2.6 64 2.3 SSE 4 6 2 3 - - 0.0
12/11:40pm 3.7 0.6 -2.6 63 2.3 SSE 4 6 2 3 - - 0.0
12/11:30pm 3.7 0.6 -3.0 61 2.5 SSE 4 4 2 2 - - 0.0
12/11:10pm 3.4 1.0 -3.1 62 2.4 CALM 0 0 0 0 - - 0.0
12/11:00pm 3.8 1.4 -3.0 61 2.5 CALM 0 4 0 2 - - 0.0
12/10:50pm 4.1 1.0 -2.9 60 2.6 SSE 4 6 2 3 - - 0.0
12/10:40pm 4.3 0.8 -3.2 58 2.8 SSE 6 6 3 3 - - 0.0
12/10:30pm 4.1 0.5 -3.5 57 2.8 SSE 6 6 3 3 - - 0.0
12/10:20pm 3.3 0.5 -3.2 62 2.4 S 2 6 1 3 - - 0.0
12/10:10pm 3.5 1.1 -3.2 61 2.4 CALM 0 0 0 0 - - 0.0
12/10:00pm 3.6 1.2 -3.3 60 2.5 CALM 0 0 0 0 - - 0.0
12/09:40pm 4.0 0.8 -3.3 59 2.7 SSE 4 6 2 3 - - 0.0
12/09:30pm 3.7 0.5 -3.8 58 2.7 SSE 4 6 2 3 - - 0.0
12/09:20pm 3.4 0.6 -2.9 63 2.3 S 2 2 1 1 - - 0.0
12/09:10pm 3.5 0.8 -2.7 64 2.3 SSW 2 2 1 1 - - 0.0
12/09:00pm 4.0 1.3 -2.8 61 2.5 W 2 4 1 2 - - 0.0
12/08:50pm 4.4 1.7 -2.6 60 2.6 SE 2 2 1 1 - - 0.0
12/08:40pm 4.7 1.6 -2.9 58 2.8 SSE 4 4 2 2 - - 0.0
12/08:30pm 4.9 1.4 -2.8 57 2.9 S 6 6 3 3 - - 0.0
12/08:20pm 4.9 1.4 -2.9 57 2.9 SSE 6 6 3 3 - - 0.0
12/08:10pm 5.0 1.5 -3.0 56 3.0 S 6 7 3 4 - - 0.0
12/08:00pm 5.0 1.5 -3.1 56 3.0 S 6 6 3 3 - - 0.0
12/07:50pm 4.9 1.7 -3.1 56 3.0 SSW 4 6 2 3 - - 0.0
12/07:40pm 4.9 2.1 -3.0 56 2.9 W 2 4 1 2 - - 0.0
12/07:30pm 5.2 2.1 -2.8 56 3.0 SE 4 6 2 3 - - 0.0
12/07:20pm 5.5 2.0 -2.7 55 3.1 SSE 6 7 3 4 - - 0.0
12/07:10pm 5.6 2.0 -3.3 53 3.3 S 6 7 3 4 - - 0.0
12/07:00pm 5.6 2.1 -3.2 53 3.3 S 6 7 3 4 - - 0.0
12/06:50pm 5.8 2.0 -3.5 51 3.5 SSE 7 7 4 4 - - 0.0
12/06:40pm 5.8 2.0 -3.7 50 3.5 SSE 7 9 4 5 - - 0.0
12/06:30pm 5.7 2.2 -3.1 53 3.3 SSE 6 7 3 4 - - 0.0
12/06:20pm 5.9 2.5 -2.2 56 3.1 SSE 6 7 3 4 - - 0.0
12/06:10pm 6.1 2.3 -3.6 50 3.6 SSE 7 7 4 4 - - 0.0
12/06:00pm 6.0 2.4 -3.4 51 3.5 S 6 7 3 4 - - 0.0
12/05:50pm 6.0 2.4 -3.3 51 3.5 SE 6 7 3 4 - - 0.0
12/05:40pm 6.1 2.9 -3.6 50 3.6 S 4 6 2 3 - - 0.0
12/05:30pm 6.3 3.1 -3.6 49 3.7 SE 4 7 2 4 - - 0.0
12/05:20pm 6.4 3.2 -3.4 49 3.7 SE 4 6 2 3 - - 0.0
12/05:10pm 6.8 3.6 -3.2 49 3.8 SE 4 4 2 2 - - 0.0
12/05:00pm 7.2 4.0 -3.5 46 4.0 SSE 4 7 2 4 - - 0.0
12/04:50pm 7.6 4.8 -3.5 45 4.2 NE 2 6 1 3 - - 0.0
12/04:40pm 8.1 4.9 -3.8 43 4.5 SSE 4 6 2 3 - - 0.0
12/04:30pm 8.4 5.1 -4.6 39 4.9 S 4 9 2 5 - - 0.0
12/04:20pm 8.5 5.0 -3.0 44 4.5 SSE 6 11 3 6 - - 0.0
12/04:10pm 8.7 4.4 -4.8 38 5.0 SSE 9 11 5 6 - - 0.0
12/04:00pm 8.8 4.9 -4.9 37 5.1 S 7 11 4 6 - - 0.0
12/03:50pm 9.0 5.2 -4.0 39 5.0 ESE 7 13 4 7 - - 0.0
12/03:40pm 9.2 5.5 -4.9 36 5.3 SSW 6 11 3 6 - - 0.0
12/03:30pm 9.2 5.7 -3.2 41 4.8 SSE 6 9 3 5 - - 0.0
12/03:20pm 9.3 5.5 -5.1 36 5.4 SSE 6 7 3 4 - - 0.0
12/03:10pm 9.5 5.8 -4.2 38 5.2 SSE 6 9 3 5 - - 0.0
12/03:00pm 9.7 5.8 -4.5 36 5.4 SSE 7 11 4 6 - - 0.0
12/02:50pm 10.0 6.4 -3.4 39 5.2 SSE 6 7 3 4 - - 0.0
12/02:40pm 10.6 7.6 -1.8 42 5.1 NE 4 6 2 3 - - 0.0
12/02:30pm 10.1 6.9 -3.6 38 5.3 SE 4 6 2 3 - - 0.0
12/02:20pm 10.1 6.4 -4.4 35 5.5 SE 6 9 3 5 - - 0.0
12/02:10pm 10.1 6.5 -2.2 42 5.0 S 7 13 4 7 - - 0.0
12/02:00pm 10.3 6.4 -4.5 35 5.7 S 7 11 4 6 - - 0.0
12/01:50pm 10.7 7.0 -2.7 39 5.4 ESE 7 11 4 6 - - 0.0
12/01:40pm 10.8 8.4 1.9 54 4.0 E 4 6 2 3 - - 0.0
12/01:30pm 10.5 8.0 1.7 54 3.9 ENE 4 6 2 3 - - 0.0
12/01:20pm 10.6 7.5 0.0 48 4.5 SE 6 9 3 5 - - 0.0
12/01:10pm 11.3 9.0 3.0 56 3.8 E 4 7 2 4 - - 0.0
12/01:00pm 10.3 7.6 2.8 59 3.4 SE 6 7 3 4 - - 0.0
12/12:50pm 10.1 7.8 4.9 70 2.5 ENE 6 7 3 4 - - 0.0
12/12:40pm 9.2 7.3 4.9 74 2.0 ESE 4 6 2 3 - - 0.0
12/12:30pm 8.2 6.1 4.0 75 1.9 E 4 6 2 3 - - 0.0
12/12:20pm 7.7 5.5 3.6 75 1.8 E 4 7 2 4 - - 0.0
12/12:10pm 7.9 5.2 3.6 74 1.9 SE 7 11 4 6 - - 0.0
12/12:00pm 9.4 6.7 3.9 68 2.5 SE 7 11 4 6 - - 0.0
12/11:50am 10.7 7.7 2.3 56 3.8 E 7 13 4 7 - - 0.0
12/11:40am 10.9 7.9 2.0 54 4.0 S 7 11 4 6 - - 0.0
12/11:30am 11.3 8.4 2.8 56 3.9 E 7 11 4 6 - - 0.0
12/11:20am 11.2 8.4 3.4 58 3.6 N 7 9 4 5 - - 0.0
12/11:10am 10.5 7.6 2.8 59 3.5 NNE 7 11 4 6 - - 0.0
12/11:00am 10.5 8.0 3.9 63 3.1 E 6 9 3 5 - - 0.0
12/10:50am 11.2 8.4 3.4 58 3.6 ESE 7 11 4 6 - - 0.0
12/10:40am 11.2 8.7 4.0 61 3.4 ENE 6 11 3 6 - - 0.0
12/10:30am 10.7 7.9 3.1 59 3.5 W 7 11 4 6 - - 0.0
12/10:20am 10.3 8.0 5.0 69 2.5 N 6 6 3 3 - - 0.0
12/10:10am 9.5 7.0 3.8 67 2.6 NNW 6 9 3 5 - - 0.0
12/10:00am 9.1 6.6 3.7 69 2.5 ENE 6 9 3 5 - - 0.0
12/09:50am 9.0 6.6 4.4 73 2.1 NE 6 9 3 5 - - 0.0
12/09:40am 9.2 6.8 4.4 72 2.2 N 6 7 3 4 - - 0.0
12/09:30am 9.3 7.2 3.8 68 2.5 SW 4 6 2 3 - - 0.0
12/09:20am 9.3 5.9 4.0 69 2.4 N 11 19 6 10 - - 0.0
12/09:10am 9.0 6.3 3.5 68 2.5 N 7 11 4 6 - - 0.0
12/09:00am 8.9 5.7 3.2 67 2.6 NNE 9 13 5 7 - - 3.6
12/08:50am 8.6 5.4 2.9 67 2.5 NNW 9 13 5 7 - - 3.6
12/08:40am 8.6 5.9 3.5 70 2.3 NNW 7 15 4 8 - - 3.6
12/08:30am 8.5 5.7 3.0 68 2.5 N 7 11 4 6 - - 3.6
12/08:20am 8.5 5.7 3.1 69 2.4 N 7 9 4 5 - - 3.6
12/08:10am 8.1 5.4 2.7 69 2.4 NNW 6 11 3 6 - - 3.6
12/08:00am 8.1 5.2 2.5 68 2.5 N 7 11 4 6 - - 3.6
12/07:50am 8.0 5.1 2.5 68 2.4 N 7 9 4 5 - - 3.6
12/07:40am 7.9 5.0 2.4 68 2.4 NE 7 11 4 6 - - 3.6
12/07:30am 8.0 3.6 2.6 69 2.4 NNW 15 19 8 10 - - 3.6
12/07:20am 8.0 4.3 2.4 68 2.5 NNW 11 15 6 8 - - 3.6
12/07:10am 7.9 3.9 2.6 69 2.3 NNW 13 17 7 9 - - 3.6
12/07:00am 7.8 4.1 2.6 69 2.3 N 11 15 6 8 - - 3.6
12/06:50am 7.7 4.9 3.1 72 2.0 NNE 7 13 4 7 - - 3.6
12/06:40am 7.7 4.9 2.9 71 2.1 WNW 7 11 4 6 - - 3.6
12/06:30am 7.9 4.6 2.7 69 2.3 N 9 13 5 7 - - 3.6
12/06:20am 7.9 4.6 2.7 69 2.3 N 9 13 5 7 - - 3.6
12/06:10am 8.1 5.0 3.7 74 2.0 NNW 9 15 5 8 - - 3.6
12/06:00am 8.2 5.0 3.3 71 2.2 N 9 15 5 8 - - 3.6
12/05:50am 8.3 5.6 3.5 72 2.2 N 7 13 4 7 - - 3.6
12/05:40am 8.5 4.9 2.9 68 2.5 NW 11 19 6 10 - - 3.6
12/05:30am 8.3 5.5 2.9 69 2.4 N 7 11 4 6 - - 3.6
12/05:20am 8.3 5.2 3.5 72 2.2 NNW 9 13 5 7 - - 3.6
12/05:10am 8.3 5.4 2.8 68 2.4 N 7 11 4 6 - - 3.6
12/05:00am 8.2 5.5 2.9 69 2.4 N 6 9 3 5 - - 3.6
12/04:50am 8.3 5.7 3.0 69 2.4 NNW 6 17 3 9 - - 3.6
12/04:40am 8.2 5.6 3.4 72 2.2 N 6 13 3 7 - - 3.6
12/04:30am 8.4 5.6 3.2 70 2.3 NW 7 17 4 9 - - 3.6
12/04:10am 8.2 5.6 3.3 71 2.2 NW 6 9 3 5 - - 3.6
12/04:00am 8.3 5.7 3.2 70 2.3 NNW 6 11 3 6 - - 3.6
12/03:50am 8.2 5.5 3.5 72 2.1 NW 7 13 4 7 - - 3.6
12/03:40am 8.2 5.5 2.8 69 2.4 N 6 7 3 4 - - 3.6
12/03:30am 8.4 5.8 3.2 70 2.3 NNW 6 6 3 3 - - 3.6
12/03:20am 8.4 5.7 2.9 68 2.5 NNE 6 13 3 7 - - 3.6
12/03:10am 8.3 5.7 3.3 71 2.2 N 6 7 3 4 - - 3.4
12/03:00am 8.1 5.6 3.9 75 1.9 N 6 9 3 5 - - 3.4
12/02:50am 8.2 5.9 3.0 70 2.3 NNE 4 7 2 4 - - 3.4
12/02:40am 8.2 5.7 3.6 73 2.1 NE 6 9 3 5 - - 3.4
12/02:30am 8.3 6.2 3.7 73 2.1 ENE 4 7 2 4 - - 3.4
12/02:20am 8.3 5.6 3.7 73 2.1 NNW 7 11 4 6 - - 3.4
12/02:10am 8.2 5.8 4.4 77 1.8 N 6 7 3 4 - - 3.4
12/02:00am 8.1 6.1 4.3 77 1.7 NNE 4 6 2 3 - - 3.4
12/01:50am 8.4 6.1 4.9 78 1.6 N 6 11 3 6 - - 3.4
12/01:40am 8.4 6.1 5.0 79 1.6 N 6 9 3 5 - - 3.4
12/01:30am 8.4 5.9 4.8 78 1.7 NW 7 11 4 6 - - 3.4
12/01:20am 8.4 6.1 4.9 78 1.6 NNW 6 13 3 7 - - 3.4
12/01:10am 8.3 5.8 4.7 78 1.7 NNW 7 11 4 6 - - 3.4
12/01:00am 8.2 5.8 5.2 81 1.4 NNW 7 11 4 6 - - 3.4
12/12:50am 8.2 6.1 5.6 84 1.2 NNW 6 13 3 7 - - 3.4
12/12:40am 8.3 6.0 4.9 79 1.6 WNW 6 11 3 6 - - 3.4
12/12:30am 8.4 5.9 4.6 77 1.8 NW 7 13 4 7 - - 3.4
12/12:20am 8.1 5.8 4.8 80 1.5 NNW 6 13 3 7 - - 3.4
12/12:10am 8.1 5.3 5.2 82 1.4 NW 9 13 5 7 - - 3.4
12/12:00am 7.9 5.8 5.7 86 1.0 NNW 6 9 3 5 - - 3.4
 
Date/Time
EST
Temp
°C
App
Temp
°C
Dew
Point
°C
Rel
Hum
%
Delta-T
°C
Wind Press
QNH
hPa
Press
MSL
hPa
Rain since
9am
mm
Dir  Spd
km/h
Gust
km/h
Spd
kts
Gust
kts
11/11:50pm 7.8 5.8 6.4 91 0.7 NW 6 9 3 5 - - 3.4
11/11:40pm 8.0 6.0 6.1 88 0.9 NW 6 7 3 4 - - 3.2
11/11:30pm 8.2 6.2 6.3 88 0.9 NNW 6 7 3 4 - - 3.2
11/11:20pm 8.5 7.2 5.8 83 1.3 WNW 2 4 1 2 - - 3.2
11/11:10pm 8.4 6.9 4.8 78 1.7 NNW 2 4 1 2 - - 3.0
11/11:00pm 8.4 6.7 5.8 84 1.2 NW 4 7 2 4 - - 3.0
11/10:50pm 8.6 6.9 6.0 84 1.2 NNW 4 7 2 4 - - 3.0
11/10:40pm 8.6 6.4 5.2 79 1.6 NNW 6 7 3 4 - - 3.0
11/10:30pm 8.7 6.9 5.4 80 1.6 NNW 4 6 2 3 - - 3.0
11/10:20pm 8.4 6.7 5.9 84 1.2 NW 4 6 2 3 - - 3.0
11/10:00pm 8.5 6.9 6.5 87 1.0 WNW 4 7 2 4 - - 3.0
11/09:50pm 8.7 6.8 6.5 86 1.1 NNW 6 9 3 5 - - 3.0
11/09:40pm 8.9 6.7 6.1 82 1.3 NW 7 13 4 7 - - 3.0
11/09:30pm 8.5 6.6 6.5 87 1.0 NW 6 9 3 5 - - 3.0
11/09:20pm 8.3 6.4 6.6 89 0.8 N 6 9 3 5 - - 3.0
11/09:10pm 8.1 6.3 7.1 93 0.5 N 6 11 3 6 - - 3.0
11/09:00pm 8.0 6.2 7.3 95 0.3 NW 6 11 3 6 - - 3.0
11/08:50pm 7.9 6.0 7.4 97 0.2 NNW 7 11 4 6 - - 3.0
11/08:40pm 7.7 5.8 7.4 98 0.1 N 7 11 4 6 - - 3.0
11/08:30pm 7.6 5.7 7.4 99 0.1 NNW 7 9 4 5 - - 3.0
11/08:20pm 7.5 5.8 7.4 99 0.0 NNW 6 7 3 4 - - 3.0
11/08:00pm 7.5 5.7 7.3 99 0.1 NW 6 7 3 4 - - 2.8
11/07:50pm 7.4 5.4 7.3 99 0.0 NNW 7 9 4 5 - - 2.8
11/07:40pm 7.4 5.6 7.3 99 0.0 NNW 6 11 3 6 - - 2.6
11/07:30pm 7.3 5.5 7.2 99 0.0 NNW 6 9 3 5 - - 2.6
11/07:20pm 7.3 5.5 7.2 99 0.0 NNW 6 7 3 4 - - 2.6
11/07:10pm 7.2 5.4 7.1 99 0.0 NW 6 7 3 4 - - 2.4
11/07:00pm 7.2 5.4 7.1 99 0.0 NNW 6 7 3 4 - - 2.2
11/06:50pm 7.2 5.8 7.1 99 0.0 NW 4 6 2 3 - - 2.0
11/06:40pm 7.1 5.6 7.0 99 0.0 NNW 4 6 2 3 - - 1.8
11/06:30pm 7.1 5.6 7.0 99 0.0 NW 4 6 2 3 - - 1.4
11/06:20pm 7.1 5.3 7.0 99 0.0 N 6 7 3 4 - - 1.2
11/06:10pm 7.1 5.6 6.9 99 0.1 NE 4 7 2 4 - - 1.0
11/06:00pm 7.1 5.1 6.9 99 0.1 N 7 13 4 7 - - 1.0
11/05:50pm 7.0 4.6 6.8 99 0.1 N 9 11 5 6 - - 0.8
11/05:40pm 7.0 5.1 6.7 98 0.1 N 6 9 3 5 - - 0.8
11/05:30pm 6.9 4.4 6.6 98 0.1 N 9 11 5 6 - - 0.8
11/05:20pm 6.9 5.0 6.6 98 0.1 N 6 7 3 4 - - 0.8
11/05:10pm 6.9 5.4 6.6 98 0.1 N 4 7 2 4 - - 0.8
11/05:00pm 7.0 4.9 6.6 97 0.2 N 7 9 4 5 - - 0.8
11/04:50pm 7.1 5.2 6.6 97 0.2 N 6 9 3 5 - - 0.6
11/04:40pm 7.2 5.3 6.5 95 0.3 NNW 6 7 3 4 - - 0.4
11/04:30pm 7.3 5.4 6.5 95 0.4 N 6 7 3 4 - - 0.2
11/04:20pm 7.4 5.8 6.5 94 0.4 N 4 6 2 3 - - 0.2
11/04:10pm 7.6 6.0 6.3 91 0.6 NNW 4 7 2 4 - - 0.0
11/04:00pm 7.8 5.8 6.2 90 0.8 N 6 11 3 6 - - 0.0
11/03:50pm 8.1 5.8 5.8 85 1.1 NW 7 13 4 7 - - 0.0
11/03:40pm 8.3 6.0 5.5 82 1.3 N 7 13 4 7 - - 0.0
11/03:30pm 8.4 6.3 5.7 83 1.3 NW 6 7 3 4 - - 0.0
11/03:20pm 8.5 6.8 5.8 83 1.3 NNW 4 6 2 3 - - 0.0
11/03:10pm 8.6 6.9 5.9 83 1.3 N 4 6 2 3 - - 0.0
11/03:00pm 8.8 6.0 5.2 78 1.7 N 9 15 5 8 - - 0.0
11/02:50pm 9.1 6.9 5.5 78 1.7 NW 6 7 3 4 - - 0.0
11/02:40pm 9.0 6.8 5.3 77 1.8 NNE 6 11 3 6 - - 0.0
11/02:30pm 9.0 6.4 5.9 81 1.5 NNW 9 15 5 8 - - 0.0
11/02:20pm 8.8 6.1 5.7 81 1.5 NNW 9 11 5 6 - - 0.0
11/02:10pm 8.4 6.0 5.1 80 1.5 NW 7 20 4 11 - - 0.0
11/02:00pm 8.5 6.4 5.6 82 1.4 ENE 6 9 3 5 - - 0.0
11/01:50pm 8.4 6.1 5.8 84 1.2 NNW 7 11 4 6 - - 0.0
11/01:40pm 8.1 6.0 5.7 85 1.1 NE 6 9 3 5 - - 0.0
11/01:30pm 7.8 5.7 6.0 88 0.9 N 6 9 3 5 - - 0.0
11/01:10pm 7.8 5.6 6.1 89 0.8 NNW 7 11 4 6 - - 0.0
11/01:00pm 8.3 6.1 6.2 87 1.0 N 7 9 4 5 - - 0.0
11/12:50pm 8.7 6.5 6.1 84 1.2 NNW 7 9 4 5 - - 0.0
11/12:40pm 8.8 6.5 5.8 81 1.4 N 7 9 4 5 - - 0.0
11/12:30pm 8.8 6.6 6.1 83 1.3 N 7 9 4 5 - - 0.0
11/12:20pm 9.4 7.3 6.0 79 1.6 NNW 6 9 3 5 - - 0.0
11/12:10pm 9.3 7.4 6.5 83 1.4 N 6 7 3 4 - - 0.0
11/12:00pm 8.6 6.5 5.9 83 1.3 NNW 6 7 3 4 - - 0.0
11/11:50am 8.1 5.7 5.1 81 1.4 NW 7 11 4 6 - - 0.0
11/11:40am 8.3 6.5 5.3 81 1.4 N 4 7 2 4 - - 0.0
11/11:30am 7.9 6.0 4.9 81 1.4 NNE 4 6 2 3 - - 0.0
11/11:20am 7.3 5.0 4.6 83 1.2 N 6 6 3 3 - - 0.0
11/11:10am 6.8 4.8 4.2 83 1.2 N 4 6 2 3 - - 0.0
11/11:00am 5.9 3.2 3.8 86 0.9 N 7 9 4 5 - - 0.0
11/10:50am 5.7 2.6 3.5 86 1.0 N 9 11 5 6 - - 0.0
11/10:40am 5.5 2.4 3.5 87 0.9 NNW 9 11 5 6 - - 0.0
11/10:30am 5.5 2.8 3.5 87 0.9 NNW 7 9 4 5 - - 0.0
11/10:20am 5.3 2.5 3.4 87 0.8 N 7 9 4 5 - - 0.0
11/10:10am 5.2 2.4 3.4 88 0.8 N 7 9 4 5 - - 0.0
11/10:00am 5.3 2.7 3.4 87 0.8 NNW 6 7 3 4 - - 0.0
11/09:50am 5.5 2.9 3.4 86 0.9 NW 6 7 3 4 - - 0.0
11/09:40am 5.3 2.5 3.3 87 0.9 NNW 7 11 4 6 - - 0.0
11/09:30am 5.2 2.4 3.2 87 0.9 NNW 7 11 4 6 - - 0.0
11/09:20am 4.8 1.6 2.9 87 0.8 NNW 9 11 5 6 - - 0.0
11/09:10am 4.2 1.3 2.6 89 0.7 NNW 7 11 4 6 - - 0.0
11/09:00am 3.8 1.0 2.3 90 0.6 NNW 6 7 3 4 - - 0.0
11/08:50am 3.4 0.6 2.2 92 0.5 N 6 9 3 5 - - 0.0
11/08:40am 2.9 0.5 1.9 93 0.4 NNW 4 7 2 4 - - 0.0
11/08:30am 2.7 0.2 1.8 94 0.4 N 4 4 2 2 - - 0.0
11/08:20am 2.6 0.1 1.8 94 0.3 N 4 6 2 3 - - 0.0
11/08:10am 2.5 0.0 1.7 94 0.3 NNW 4 6 2 3 - - 0.0
11/08:00am 2.5 0.0 1.6 94 0.4 N 4 6 2 3 - - 0.0
11/07:50am 2.5 0.0 1.6 94 0.4 N 4 6 2 3 - - 0.0
11/07:40am 2.5 0.0 1.5 93 0.4 N 4 6 2 3 - - 0.0
11/07:30am 2.6 0.1 1.4 92 0.5 NNW 4 6 2 3 - - 0.0
11/07:10am 2.5 -0.1 1.2 91 0.5 N 4 7 2 4 - - 0.0
11/07:00am 2.5 -0.5 1.1 90 0.6 NNW 6 7 3 4 - - 0.0
11/06:50am 2.6 -0.6 0.9 88 0.7 NNW 7 9 4 5 - - 0.0
11/06:40am 2.6 -0.6 0.9 88 0.7 NNW 7 7 4 4 - - 0.0
11/06:30am 2.7 -0.5 0.7 87 0.8 NNW 7 9 4 5 - - 0.0
11/06:20am 2.5 -0.7 0.7 88 0.7 NNW 7 9 4 5 - - 0.0
11/06:10am 2.2 0.0 0.9 91 0.5 NNE 2 9 1 5 - - 0.0
11/06:00am 2.3 0.1 0.9 90 0.6 NE 2 4 1 2 - - 0.0
11/05:50am 2.5 -0.1 1.0 90 0.6 N 4 6 2 3 - - 0.0
11/05:40am 2.6 0.4 0.9 88 0.7 N 2 4 1 2 - - 0.0
11/05:30am 2.7 0.5 1.0 88 0.7 NW 2 4 1 2 - - 0.0
11/05:10am 3.0 0.4 1.1 87 0.8 N 4 6 2 3 - - 0.0
11/05:00am 3.2 0.2 1.1 86 0.9 NNW 6 7 3 4 - - 0.0
11/04:50am 3.4 0.8 1.0 84 1.0 NNW 4 6 2 3 - - 0.0
11/04:40am 3.6 0.6 0.9 82 1.1 NNW 6 6 3 3 - - 0.0
11/04:30am 3.7 0.5 0.8 81 1.2 NNW 7 9 4 5 - - 0.0
11/04:20am 3.8 0.6 1.0 82 1.1 NNW 7 9 4 5 - - 0.0
11/04:10am 4.1 0.5 0.4 77 1.5 NW 9 11 5 6 - - 0.0
11/04:00am 3.8 0.2 0.5 79 1.3 NW 9 11 5 6 - - 0.0
11/03:50am 3.3 -0.3 0.9 84 1.0 NW 9 9 5 5 - - 0.0
11/03:40am 2.8 -0.2 1.8 93 0.4 NW 7 9 4 5 - - 0.0
11/03:30am 2.2 -0.6 1.9 98 0.1 NW 6 7 3 4 - - 0.0
11/03:20am 2.1 -0.7 1.9 99 0.1 N 6 7 3 4 - - 0.0
11/03:00am 2.1 -0.8 1.7 97 0.2 NNW 6 6 3 3 - - 0.0
11/02:50am 2.2 -0.6 1.8 97 0.2 NNW 6 7 3 4 - - 0.0
11/02:40am 2.3 -0.2 1.8 96 0.2 N 4 7 2 4 - - 0.0
11/02:30am 2.5 -0.3 1.9 96 0.2 NNW 6 7 3 4 - - 0.0
11/02:20am 2.6 -0.2 1.9 95 0.3 NW 6 9 3 5 - - 0.0
11/02:10am 2.8 0.0 2.0 94 0.3 NNW 6 6 3 3 - - 0.0
11/02:00am 3.0 0.2 2.0 93 0.4 NNW 6 6 3 3 - - 0.0
11/01:50am 3.2 0.2 2.0 92 0.5 NW 7 9 4 5 - - 0.0
11/01:40am 2.9 0.1 2.0 94 0.4 NW 6 7 3 4 - - 0.0
11/01:30am 2.8 0.4 1.9 94 0.4 NNW 4 6 2 3 - - 0.0
11/01:20am 3.1 0.3 2.0 92 0.5 NNW 6 7 3 4 - - 0.0
11/01:10am 3.1 0.3 2.0 92 0.5 NNW 6 7 3 4 - - 0.0
11/01:00am 3.1 0.1 2.0 92 0.5 NNW 7 7 4 4 - - 0.0
11/12:50am 3.4 0.6 2.0 90 0.6 NW 6 7 3 4 - - 0.0
11/12:40am 3.4 0.6 2.2 92 0.5 NNW 6 7 3 4 - - 0.0
11/12:30am 3.4 0.6 2.1 91 0.5 NNW 6 7 3 4 - - 0.0
11/12:20am 3.6 0.8 2.2 90 0.6 NNW 6 7 3 4 - - 0.0
11/12:10am 3.6 0.8 2.3 91 0.5 NNW 6 7 3 4 - - 0.0
11/12:00am 3.8 1.4 2.4 91 0.6 NNW 4 6 2 3 - - 0.0
 
Date/Time
EST
Temp
°C
App
Temp
°C
Dew
Point
°C
Rel
Hum
%
Delta-T
°C
Wind Press
QNH
hPa
Press
MSL
hPa
Rain since
9am
mm
Dir  Spd
km/h
Gust
km/h
Spd
kts
Gust
kts
10/11:50pm 3.9 1.2 2.4 90 0.6 NNW 6 6 3 3 - - 0.0
10/11:40pm 4.0 1.3 2.5 90 0.6 NW 6 7 3 4 - - 0.0
10/11:30pm 4.1 1.2 2.5 89 0.7 NW 7 7 4 4 - - 0.0
10/11:20pm 4.2 1.5 2.6 89 0.7 NW 6 7 3 4 - - 0.0
10/11:10pm 4.1 1.2 2.7 91 0.6 NW 7 7 4 4 - - 0.0
10/10:50pm 3.9 2.3 2.7 92 0.5 CALM 0 2 0 1 - - 0.0
10/10:40pm 4.1 2.5 2.7 91 0.6 CALM 0 2 0 1 - - 0.0
10/10:30pm 4.4 2.8 2.7 89 0.7 CALM 0 2 0 1 - - 0.0
10/10:20pm 4.9 2.6 2.9 87 0.9 NW 4 6 2 3 - - 0.0
10/10:10pm 5.1 2.8 2.6 84 1.1 NW 4 6 2 3 - - 0.0
10/10:00pm 4.4 2.5 2.8 89 0.7 NW 2 4 1 2 - - 0.0
10/09:50pm 4.7 2.8 2.8 87 0.8 NNE 2 6 1 3 - - 0.0
10/09:30pm 4.7 2.8 2.9 88 0.8 WNW 2 4 1 2 - - 0.0
10/09:10pm 4.9 3.0 3.0 87 0.8 WNW 2 4 1 2 - - 0.0
10/09:00pm 5.0 3.1 3.0 87 0.9 WNW 2 4 1 2 - - 0.0
10/08:50pm 5.1 3.6 3.0 86 0.9 CALM 0 2 0 1 - - 0.0

Other formats

Comma delimited format used in spreadsheet applications
http://www.bom.gov.au/fwo/IDN60801/IDN60801.99146.axf

JavaScript Object Notation format (JSON) in row-major order
http://www.bom.gov.au/fwo/IDN60801/IDN60801.99146.json

Data quality

Most of these data are generated automatically and are frequently updated. Quality checks on data are not normally performed. It is possible for incorrect values to appear. Refer to information at About Latest Weather Observations and please check the disclaimer before using these data.